createdAt,value
2022-09-27T00:06:07.809Z,8.35
2022-09-27T00:12:53.973Z,7.65
2022-09-27T00:19:42.289Z,7.97
2022-09-27T00:26:28.019Z,8.63
2022-09-27T00:33:14.005Z,8.40
2022-09-27T00:40:02.265Z,7.80
2022-09-27T00:46:52.736Z,8.43
2022-09-27T00:53:48.549Z,8.70
2022-09-27T01:00:38.066Z,8.45
2022-09-27T01:07:23.666Z,7.82
2022-09-27T01:14:41.681Z,7.80
2022-09-27T01:21:56.626Z,8.13
2022-09-27T01:28:59.164Z,7.90
2022-09-27T01:36:00.949Z,7.88
2022-09-27T01:42:55.456Z,7.78
2022-09-27T01:49:50.555Z,7.32
2022-09-27T01:56:44.230Z,7.72
2022-09-27T02:03:42.594Z,7.32
2022-09-27T02:10:55.241Z,7.45
2022-09-27T02:17:50.660Z,7.07
2022-09-27T02:24:43.572Z,7.50
2022-09-27T02:31:29.658Z,7.95
2022-09-27T02:38:19.620Z,7.40
2022-09-27T03:05:58.893Z,7.03
2022-09-27T03:12:44.669Z,7.40
2022-09-27T03:19:30.432Z,7.20
2022-09-27T03:26:38.933Z,7.28
2022-09-27T03:33:24.744Z,6.40
2022-09-27T03:40:16.233Z,6.35
2022-09-27T03:47:04.690Z,6.30
2022-09-27T03:53:50.592Z,6.30
2022-09-27T04:00:37.254Z,5.60
2022-09-27T04:14:13.085Z,5.70
2022-09-27T04:21:15.916Z,5.93
2022-09-27T04:28:10.622Z,6.25
2022-09-27T04:35:08.767Z,6.50
2022-09-27T04:41:54.515Z,5.72
2022-09-27T04:48:43.180Z,5.70
2022-09-27T04:55:28.910Z,6.10
2022-09-27T05:02:14.623Z,6.00
2022-09-27T05:09:25.864Z,5.50
2022-09-27T05:16:15.499Z,5.78
2022-09-27T05:23:39.252Z,6.10
2022-09-27T05:30:27.523Z,5.60
2022-09-27T05:37:23.553Z,6.18
2022-09-27T05:44:09.125Z,5.13
2022-09-27T05:51:02.595Z,5.20
2022-09-27T05:57:59.276Z,5.30
2022-09-27T06:04:51.812Z,5.85
2022-09-27T06:11:59.355Z,5.32
2022-09-27T06:18:46.413Z,5.22
2022-09-27T06:25:32.223Z,5.45
2022-09-27T06:32:38.653Z,5.10
2022-09-27T06:39:35.990Z,5.30
2022-09-27T06:46:42.903Z,5.50
2022-09-27T06:53:31.715Z,5.80
2022-09-27T07:00:27.270Z,5.30
2022-09-27T07:07:32.465Z,5.60
2022-09-27T07:14:21.665Z,5.13
2022-09-27T07:21:09.249Z,5.57
2022-09-27T07:27:56.196Z,5.20
2022-09-27T07:34:44.477Z,5.70
2022-09-27T07:41:32.007Z,5.50
2022-09-27T07:48:19.437Z,5.80
2022-09-27T07:55:21.949Z,5.40
2022-09-27T08:02:19.290Z,5.30
2022-09-27T08:09:09.927Z,5.47
2022-09-27T08:16:05.757Z,5.20
2022-09-27T08:23:08.938Z,5.40
2022-09-27T08:29:59.087Z,5.22
2022-09-27T08:36:47.471Z,5.30
2022-09-27T08:43:44.969Z,5.40
2022-09-27T08:50:39.793Z,5.93
2022-09-27T08:57:29.653Z,5.20
2022-09-27T09:04:27.398Z,5.32
2022-09-27T09:18:36.456Z,5.57
2022-09-27T09:25:48.817Z,5.53
2022-09-27T09:32:48.849Z,4.80
2022-09-27T09:39:43.914Z,5.07
2022-09-27T09:46:38.654Z,5.00
2022-09-27T09:53:42.677Z,5.55
2022-09-27T10:00:32.474Z,5.40
2022-09-27T10:07:24.734Z,6.32
2022-09-27T10:14:15.872Z,5.53
2022-09-27T10:21:13.593Z,5.85
2022-09-27T10:28:01.088Z,5.70
2022-09-27T10:34:51.348Z,5.40
2022-09-27T10:41:42.600Z,5.20
2022-09-27T10:48:33.933Z,5.38
2022-09-27T10:55:28.869Z,5.20
2022-09-27T11:02:25.545Z,5.20
2022-09-27T11:09:26.865Z,5.30
2022-09-27T11:16:51.992Z,5.22
2022-09-27T11:23:57.846Z,5.43
2022-09-27T11:30:53.315Z,5.47
2022-09-27T11:38:06.749Z,5.53
2022-09-27T11:52:45.969Z,4.85
2022-09-27T12:00:13.053Z,5.75
2022-09-27T12:07:11.919Z,6.07
2022-09-27T12:14:04.696Z,5.68
2022-09-27T12:20:51.738Z,5.80
2022-09-27T12:34:43.724Z,5.60
2022-09-27T12:41:31.968Z,5.43
2022-09-27T12:48:48.531Z,4.93
2022-09-27T12:56:06.925Z,5.40
2022-09-27T13:03:39.249Z,5.20
2022-09-27T13:10:45.260Z,5.38
2022-09-27T13:17:56.378Z,8.05
2022-09-27T13:24:59.116Z,4.95
2022-09-27T13:32:29.064Z,4.93
2022-09-27T13:39:28.226Z,5.35
2022-09-27T13:46:57.875Z,5.07
2022-09-27T13:53:46.755Z,5.70
2022-09-27T14:00:42.579Z,5.55
2022-09-27T14:07:39.442Z,5.60
2022-09-27T14:14:29.335Z,5.40
2022-09-27T14:21:30.717Z,5.70
2022-09-27T14:28:45.327Z,5.65
2022-09-27T14:35:51.580Z,5.00
2022-09-27T14:42:39.728Z,5.63
2022-09-27T14:49:28.533Z,5.95
2022-09-27T14:56:19.408Z,5.30
2022-09-27T15:03:09.358Z,5.90
2022-09-27T15:09:57.724Z,5.90
2022-09-27T15:16:43.821Z,5.15
2022-09-27T15:23:32.159Z,5.63
2022-09-27T15:30:29.868Z,4.90
2022-09-27T15:37:30.568Z,5.40
2022-09-27T15:44:41.582Z,6.13
2022-09-27T15:51:47.979Z,5.72
2022-09-27T15:58:34.252Z,5.67
2022-09-27T16:05:19.800Z,5.57
2022-09-27T16:12:08.295Z,5.38
2022-09-27T16:18:53.655Z,5.50
2022-09-27T16:25:39.194Z,5.55
2022-09-27T16:32:27.329Z,5.85
2022-09-27T16:39:16.304Z,5.50
2022-09-27T16:46:11.764Z,5.68
2022-09-27T16:53:00.604Z,5.15
2022-09-27T16:59:46.060Z,6.00
2022-09-27T17:06:31.953Z,5.80
2022-09-27T17:13:19.928Z,5.67
2022-09-27T17:20:06.676Z,6.15
2022-09-27T17:26:52.367Z,6.30
2022-09-27T17:33:46.102Z,6.10
2022-09-27T17:40:31.768Z,6.43
2022-09-27T17:47:29.670Z,6.22
2022-09-27T17:54:19.728Z,6.07
2022-09-27T18:01:07.118Z,6.38
2022-09-27T18:07:52.668Z,6.10
2022-09-27T18:14:40.575Z,5.40
2022-09-27T18:21:27.057Z,5.60
2022-09-27T18:28:12.752Z,5.80
2022-09-27T18:35:01.053Z,6.18
2022-09-27T18:41:47.740Z,6.13
2022-09-27T18:48:35.218Z,6.20
2022-09-27T18:55:25.437Z,6.55
2022-09-27T19:02:13.744Z,6.60
2022-09-27T19:09:00.428Z,6.05
2022-09-27T19:15:58.474Z,6.30
2022-09-27T19:22:43.891Z,6.70
2022-09-27T19:29:29.569Z,6.68
2022-09-27T19:36:20.235Z,6.35
2022-09-27T19:43:05.612Z,6.57
2022-09-27T19:49:51.084Z,7.35
2022-09-27T19:56:39.224Z,7.10
2022-09-27T20:03:24.604Z,7.00
2022-09-27T20:10:12.120Z,7.72
2022-09-27T20:17:00.292Z,8.13
2022-09-27T20:23:46.394Z,8.73
2022-09-27T20:30:32.760Z,8.63
2022-09-27T20:37:21.055Z,8.82
2022-09-27T20:44:08.981Z,8.30
2022-09-27T20:51:04.251Z,8.73
2022-09-27T20:57:57.779Z,8.45
2022-09-27T21:04:43.449Z,8.27
2022-09-27T21:11:29.170Z,8.40
2022-09-27T21:18:20.057Z,8.27
2022-09-27T21:25:06.572Z,8.30
2022-09-27T21:31:51.941Z,8.18
2022-09-27T21:38:40.206Z,8.57
2022-09-27T21:45:25.572Z,7.90
2022-09-27T21:52:10.990Z,8.30
2022-09-27T21:58:59.119Z,8.35
2022-09-27T22:05:47.829Z,7.97
2022-09-27T22:12:33.193Z,8.27
2022-09-27T22:19:21.234Z,8.15
2022-09-27T22:26:15.752Z,8.30
2022-09-27T22:33:01.165Z,8.43
2022-09-27T22:39:49.157Z,8.48
2022-09-27T22:46:34.557Z,8.00
2022-09-27T22:53:19.991Z,7.93
2022-09-27T23:00:09.838Z,7.60
2022-09-27T23:06:55.355Z,7.32
2022-09-27T23:13:43.657Z,7.70
2022-09-27T23:20:31.874Z,8.40
2022-09-27T23:27:29.732Z,8.70
2022-09-27T23:34:15.778Z,8.52
2022-09-27T23:41:03.995Z,8.30
2022-09-27T23:47:49.627Z,8.00
2022-09-27T23:54:35.571Z,9.05
